Time;durP1;ratioP1;P1;durP2;ratioP2;P2;SDS_P1;SDS_P2;PMS_P1;PMS_P2;Temp;Humidity;BMP_temperature;BMP_pressure;BME280_temperature;BME280_humidity;BME280_pressure;Samples;Min_cycle;Max_cycle;Signal;HPM_P1;HPM_P2
2022/06/25 00:02:10;;;;;;;;;3.00;3.00;;;;;23.59;48.13;97980.53;4925778;28;102275;-57
2022/06/25 00:07:23;;;;;;;;;2.33;2.33;;;;;23.59;48.34;97980.53;4914064;28;108613;-57
2022/06/25 00:09:50;;;;;;;;;2.00;2.00;;;;;23.59;48.33;97978.59;4901392;28;102474;-58
2022/06/25 00:12:33;;;;;;;;;3.00;2.00;;;;;23.58;48.30;97982.47;4841069;28;102586;-57
2022/06/25 00:15:03;;;;;;;;;2.00;2.00;;;;;23.59;48.24;97989.66;4946882;28;102585;-57
2022/06/25 00:17:31;;;;;;;;;3.00;3.00;;;;;23.58;48.10;97988.00;4940112;28;104244;-57
2022/06/25 00:19:58;;;;;;;;;2.67;2.67;;;;;23.58;48.28;97982.47;4946726;28;102278;-57
2022/06/25 00:22:26;;;;;;;;;1.00;1.00;;;;;23.59;48.13;97986.88;4940749;28;102193;-57
2022/06/25 00:24:53;;;;;;;;;4.00;3.00;;;;;23.58;48.31;97981.66;4944463;28;102662;-57
2022/06/25 00:27:20;;;;;;;;;1.67;1.67;;;;;23.57;48.16;97983.59;4941458;28;104622;-57
2022/06/25 00:29:48;;;;;;;;;2.67;2.67;;;;;23.57;48.33;97983.59;4945350;28;102292;-57
2022/06/25 00:32:15;;;;;;;;;1.67;1.67;;;;;23.58;48.49;97981.66;4940382;28;102371;-57
2022/06/25 00:34:42;;;;;;;;;2.00;2.00;;;;;23.56;48.24;97984.69;4933996;28;103341;-57
2022/06/25 00:37:10;;;;;;;;;3.00;3.00;;;;;23.56;48.26;97973.66;4929687;28;104177;-57
2022/06/25 00:39:37;;;;;;;;;2.33;2.00;;;;;23.55;48.34;97980.28;4925531;28;103032;-57
2022/06/25 00:42:12;;;;;;;;;2.00;2.00;;;;;23.54;48.34;97982.25;4934252;28;103921;-57
2022/06/25 00:44:39;;;;;;;;;2.00;2.00;;;;;23.55;48.26;97983.06;4934887;28;103942;-57
2022/06/25 00:47:08;;;;;;;;;2.00;2.00;;;;;23.55;48.41;97977.53;4930918;28;104203;-57
2022/06/25 00:49:35;;;;;;;;;3.00;3.00;;;;;23.55;48.25;97983.06;4940631;28;102325;-57
2022/06/25 00:52:05;;;;;;;;;3.00;3.00;;;;;23.54;48.20;97978.69;4924573;28;102355;-57
2022/06/25 00:54:35;;;;;;;;;2.00;2.00;;;;;23.54;48.24;97976.75;4934846;28;102342;-57
2022/06/25 00:57:03;;;;;;;;;1.67;1.67;;;;;23.54;48.26;97979.50;4955710;28;104020;-57
2022/06/25 00:59:30;;;;;;;;;2.33;2.33;;;;;23.55;48.23;97980.28;4930317;28;102376;-57
2022/06/25 01:01:58;;;;;;;;;2.00;2.00;;;;;23.54;48.34;97975.91;4901409;28;102642;-57
2022/06/25 01:04:25;;;;;;;;;2.00;2.00;;;;;23.53;48.34;97980.63;4917435;28;102487;-57
2022/06/25 01:06:52;;;;;;;;;2.00;2.00;;;;;23.55;48.33;97983.06;4910838;28;104320;-58
2022/06/25 01:09:19;;;;;;;;;2.00;2.00;;;;;23.52;48.43;97972.63;4897006;28;103196;-57
2022/06/25 01:11:46;;;;;;;;;2.33;2.00;;;;;23.51;48.50;97980.09;4906379;28;102418;-57
2022/06/25 01:14:14;;;;;;;;;2.00;2.00;;;;;23.52;48.43;97978.16;4904387;28;104114;-57
2022/06/25 01:16:41;;;;;;;;;3.67;2.00;;;;;23.51;48.36;97982.03;4931771;28;104026;-57
2022/06/25 01:19:11;;;;;;;;;2.00;2.00;;;;;23.51;48.28;97968.22;4940638;28;102040;-57
2022/06/25 01:21:40;;;;;;;;;2.00;2.00;;;;;23.51;48.37;97977.31;4910698;28;103576;-57
2022/06/25 01:24:07;;;;;;;;;3.00;2.33;;;;;23.50;48.55;97975.72;4928958;28;102524;-57
2022/06/25 01:26:35;;;;;;;;;3.00;3.00;;;;;23.51;48.34;97976.50;4924094;28;104237;-57
2022/06/25 01:29:03;;;;;;;;;2.00;2.00;;;;;23.50;48.48;97978.47;4927349;28;102146;-57
2022/06/25 01:31:30;;;;;;;;;2.00;2.00;;;;;23.51;48.31;97976.50;4931512;28;102222;-57
2022/06/25 01:33:58;;;;;;;;;3.00;2.33;;;;;23.50;48.36;97977.66;4929489;28;102470;-57
2022/06/25 01:36:25;;;;;;;;;3.00;2.00;;;;;23.49;48.47;97987.84;4921437;28;104224;-57
2022/06/25 01:38:52;;;;;;;;;2.00;1.67;;;;;23.49;48.57;97987.03;4935220;28;102033;-57
2022/06/25 01:41:20;;;;;;;;;2.00;2.00;;;;;23.48;48.56;97988.97;4940332;28;102278;-57
2022/06/25 01:43:47;;;;;;;;;1.67;1.67;;;;;23.47;48.60;97987.31;4931342;28;104130;-57
2022/06/25 01:46:15;;;;;;;;;2.00;2.00;;;;;23.47;48.54;97992.84;4936876;28;104216;-57
2022/06/25 01:48:42;;;;;;;;;2.00;2.00;;;;;23.47;48.43;97992.84;4947186;28;102472;-57
2022/06/25 01:51:09;;;;;;;;;2.00;2.00;;;;;23.48;48.62;97993.66;4925149;28;102271;-57
2022/06/25 01:53:37;;;;;;;;;2.33;2.33;;;;;23.46;48.55;97996.72;4929652;28;102841;-57
2022/06/25 01:56:04;;;;;;;;;2.00;2.00;;;;;23.47;48.38;98003.06;4944775;28;104324;-57
2022/06/25 01:58:31;;;;;;;;;1.33;1.33;;;;;23.47;48.60;98000.28;4947025;28;102639;-57
2022/06/25 02:00:58;;;;;;;;;2.00;2.00;;;;;23.46;48.58;98007.75;4945386;28;102417;-58
2022/06/25 02:03:26;;;;;;;;;2.67;2.67;;;;;23.47;48.72;98008.56;4950075;28;102203;-57
2022/06/25 02:05:59;;;;;;;;;3.67;3.00;;;;;23.46;48.56;98013.28;4942683;28;109043;-57
2022/06/25 02:08:29;;;;;;;;;2.00;2.00;;;;;23.46;48.58;98012.47;4940130;28;102525;-57
2022/06/25 02:10:56;;;;;;;;;2.67;2.67;;;;;23.45;48.49;98010.84;4946881;28;102511;-57
2022/06/25 02:13:24;;;;;;;;;2.00;2.00;;;;;23.45;48.49;98019.09;4936359;28;102190;-57
2022/06/25 02:15:51;;;;;;;;;2.00;2.00;;;;;23.45;48.49;98021.88;4944253;28;104202;-57
2022/06/25 02:18:19;;;;;;;;;2.00;2.00;;;;;23.45;48.51;98024.63;4932272;28;102107;-57
2022/06/25 02:20:46;;;;;;;;;2.33;2.33;;;;;23.44;48.71;98025.75;4947814;28;102420;-57
2022/06/25 02:23:13;;;;;;;;;1.00;1.00;;;;;23.44;48.73;98028.50;4935419;28;102351;-57
2022/06/25 02:25:42;;;;;;;;;2.00;2.00;;;;;23.44;48.66;98034.84;4944618;28;104082;-57
2022/06/25 02:28:13;;;;;;;;;2.00;2.00;;;;;23.42;48.46;98028.75;4938623;28;102816;-57
2022/06/25 02:30:40;;;;;;;;;0.67;0.67;;;;;23.42;48.51;98028.75;4947469;28;102355;-57
2022/06/25 02:33:09;;;;;;;;;1.00;1.00;;;;;23.42;48.72;98030.69;4940978;28;102559;-57
2022/06/25 02:35:38;;;;;;;;;1.33;1.33;;;;;23.42;48.53;98033.44;4940860;28;104083;-57
2022/06/25 02:38:05;;;;;;;;;2.00;1.33;;;;;23.41;48.68;98031.84;4948848;28;102175;-57
2022/06/25 02:40:33;;;;;;;;;2.00;2.00;;;;;23.42;48.61;98033.44;4940904;28;112476;-57
2022/06/25 02:43:01;;;;;;;;;3.00;3.00;;;;;23.41;48.69;98031.84;4946336;28;102457;-57
2022/06/25 02:45:28;;;;;;;;;1.67;0.67;;;;;23.40;48.56;98035.69;4946394;28;104110;-59
2022/06/25 02:47:56;;;;;;;;;2.67;2.67;;;;;23.39;48.61;98025.78;4939036;28;102390;-57
2022/06/25 02:50:24;;;;;;;;;2.33;2.33;;;;;23.39;48.82;98029.34;4938847;28;105089;-57
2022/06/25 02:52:51;;;;;;;;;2.00;2.00;;;;;23.39;48.63;98031.28;4942445;28;102444;-57
2022/06/25 02:55:19;;;;;;;;;2.00;2.00;;;;;23.39;48.77;98028.53;4939036;28;104251;-57
2022/06/25 03:00:32;;;;;;;;;2.00;2.00;;;;;23.38;48.73;98032.41;4935938;28;102919;-57
2022/06/25 03:02:59;;;;;;;;;3.33;3.00;;;;;23.37;48.84;98039.06;4944386;28;102367;-58
2022/06/25 03:05:26;;;;;;;;;2.00;2.00;;;;;23.35;48.63;98036.59;4943152;28;104306;-57
2022/06/25 03:07:53;;;;;;;;;2.00;2.00;;;;;23.37;48.70;98037.09;4940262;28;103012;-57
2022/06/25 03:10:20;;;;;;;;;2.67;2.67;;;;;23.36;48.65;98035.47;4949650;28;102393;-57
2022/06/25 03:12:47;;;;;;;;;3.00;2.00;;;;;23.37;48.81;98036.31;4938336;28;102378;-57
2022/06/25 03:15:14;;;;;;;;;1.33;1.33;;;;;23.36;48.82;98031.91;4944503;28;104270;-57
2022/06/25 03:17:42;;;;;;;;;2.00;2.00;;;;;23.36;48.67;98034.66;4936085;28;102369;-57
2022/06/25 03:20:10;;;;;;;;;1.67;1.67;;;;;23.36;48.84;98034.66;4939402;28;101960;-57
2022/06/25 03:22:37;;;;;;;;;1.33;1.33;;;;;23.35;48.68;98044.03;4932689;28;102536;-57
2022/06/25 03:25:05;;;;;;;;;3.00;3.00;;;;;23.35;48.74;98038.53;4941947;28;104959;-57
2022/06/25 03:27:32;;;;;;;;;2.33;2.33;;;;;23.34;48.77;98042.41;4941741;28;102336;-57
2022/06/25 03:29:59;;;;;;;;;3.00;2.67;;;;;23.34;48.65;98037.72;4945331;28;101973;-57
2022/06/25 03:32:26;;;;;;;;;3.00;3.00;;;;;23.33;48.70;98033.31;4951385;28;102711;-57
2022/06/25 03:34:53;;;;;;;;;2.67;2.00;;;;;23.34;48.81;98036.88;4939484;28;109890;-57
2022/06/25 03:37:21;;;;;;;;;2.67;2.67;;;;;23.32;48.84;98039.13;4934771;28;102254;-57
2022/06/25 03:39:48;;;;;;;;;2.00;2.00;;;;;23.34;48.76;98042.41;4937203;28;102197;-57
2022/06/25 03:42:15;;;;;;;;;2.00;2.00;;;;;23.34;48.70;98047.91;4944575;28;102299;-57
2022/06/25 03:44:42;;;;;;;;;3.00;2.00;;;;;23.33;48.79;98046.28;4944832;28;104292;-57
2022/06/25 03:47:09;;;;;;;;;2.00;2.00;;;;;23.33;48.67;98051.78;4946036;28;102465;-57
2022/06/25 03:49:36;;;;;;;;;2.67;2.67;;;;;23.33;48.80;98046.28;4938340;28;102536;-57
2022/06/25 03:52:04;;;;;;;;;2.00;2.00;;;;;23.33;48.78;98046.28;4940067;28;102249;-57
2022/06/25 03:54:31;;;;;;;;;1.00;1.00;;;;;23.34;48.91;98036.88;4940338;28;104059;-57
2022/06/25 03:56:58;;;;;;;;;2.67;2.67;;;;;23.31;48.69;98031.97;4940907;28;102961;-57
2022/06/25 03:59:25;;;;;;;;;2.00;2.00;;;;;23.33;48.84;98044.34;4941624;28;102575;-57
2022/06/25 04:01:52;;;;;;;;;2.33;2.33;;;;;23.33;48.87;98041.56;4929843;28;102472;-57
2022/06/25 04:04:19;;;;;;;;;2.33;1.67;;;;;23.33;48.79;98046.28;4935833;28;103503;-57
2022/06/25 04:06:46;;;;;;;;;2.67;1.67;;;;;23.34;48.73;98062.53;4967403;28;102093;-57
2022/06/25 04:09:13;;;;;;;;;3.00;3.00;;;;;23.34;48.79;98050.69;4932728;28;102483;-57
2022/06/25 04:11:40;;;;;;;;;2.67;2.67;;;;;23.34;48.79;98045.16;4938417;28;102716;-57
2022/06/25 04:14:16;;;;;;;;;2.00;2.00;;;;;23.34;48.61;98047.91;4941806;28;104084;-57
2022/06/25 04:16:43;;;;;;;;;3.00;3.00;;;;;23.34;48.81;98047.91;4935666;28;102169;-57
2022/06/25 04:19:10;;;;;;;;;3.00;3.00;;;;;23.35;48.68;98046.81;4925759;28;102084;-57
2022/06/25 04:21:38;;;;;;;;;2.67;2.00;;;;;23.35;48.75;98044.03;4927225;28;102496;-57
2022/06/25 04:24:05;;;;;;;;;1.00;1.00;;;;;23.35;48.69;98046.81;4928220;28;104059;-57
2022/06/25 04:26:32;;;;;;;;;3.00;3.00;;;;;23.35;48.68;98050.41;4942028;28;102341;-57
2022/06/25 04:29:05;;;;;;;;;2.67;2.67;;;;;23.34;48.65;98054.25;4933783;28;102214;-57
2022/06/25 04:31:33;;;;;;;;;1.67;1.67;;;;;23.35;48.70;98055.09;4929749;28;102229;-58
2022/06/25 04:34:00;;;;;;;;;3.33;3.00;;;;;23.34;48.66;98057.03;4943591;28;103934;-58
2022/06/25 04:36:27;;;;;;;;;1.67;1.67;;;;;23.34;48.71;98058.97;4939472;28;102371;-57
2022/06/25 04:38:55;;;;;;;;;2.00;2.00;;;;;23.35;48.80;98060.59;4938636;28;101999;-57
2022/06/25 04:41:22;;;;;;;;;2.00;2.00;;;;;23.35;48.76;98071.63;4942431;28;102947;-57
2022/06/25 04:43:49;;;;;;;;;2.67;2.67;;;;;23.34;48.57;98065.28;4934541;28;104160;-57
2022/06/25 04:46:16;;;;;;;;;2.67;2.00;;;;;23.35;48.61;98075.22;4934565;28;102065;-57
2022/06/25 04:48:43;;;;;;;;;2.67;2.67;;;;;23.36;48.55;98076.06;4936585;28;102186;-57
2022/06/25 04:51:10;;;;;;;;;2.00;2.00;;;;;23.35;48.68;98071.63;4939743;28;102349;-57
2022/06/25 04:53:55;;;;;;;;;2.00;2.00;;;;;23.36;48.79;98073.28;4932951;28;104206;-57
2022/06/25 04:56:26;;;;;;;;;2.00;2.00;;;;;23.36;48.47;98073.28;4963665;28;102605;-57
2022/06/25 04:58:54;;;;;;;;;3.33;3.00;;;;;23.36;48.58;98073.28;4937373;28;102094;-57
2022/06/25 05:01:21;;;;;;;;;2.67;2.00;;;;;23.35;48.66;98071.63;4935550;28;104499;-57
2022/06/25 05:03:48;;;;;;;;;2.33;2.00;;;;;23.35;48.53;98075.22;4944496;28;104152;-57
2022/06/25 05:06:16;;;;;;;;;2.67;2.67;;;;;23.34;48.73;98076.34;4937798;28;103287;-57
2022/06/25 05:08:43;;;;;;;;;2.00;2.00;;;;;23.37;48.73;98085.97;4941778;28;102189;-57
2022/06/25 05:11:10;;;;;;;;;2.00;2.00;;;;;23.35;48.72;98086.25;4945015;28;102604;-57
2022/06/25 05:13:37;;;;;;;;;2.00;2.00;;;;;23.35;48.58;98089.03;4946224;28;104121;-57
2022/06/25 05:16:04;;;;;;;;;1.67;1.67;;;;;23.36;48.51;98087.09;4940461;28;102169;-57
2022/06/25 05:18:33;;;;;;;;;2.67;2.00;;;;;23.34;48.73;98081.03;4945393;28;102024;-58
2022/06/25 05:21:00;;;;;;;;;2.00;2.00;;;;;23.37;48.67;98080.47;4942294;28;102220;-57
2022/06/25 05:23:27;;;;;;;;;2.00;2.00;;;;;23.35;48.42;98072.47;4941997;28;108961;-57
2022/06/25 05:25:54;;;;;;;;;2.00;2.00;;;;;23.36;48.71;98093.44;4936955;28;102232;-57
2022/06/25 05:28:21;;;;;;;;;2.33;2.33;;;;;23.36;48.54;98085.16;4930904;28;102376;-57
2022/06/25 05:30:49;;;;;;;;;3.33;3.00;;;;;23.37;48.60;98080.47;4941401;28;102731;-57
2022/06/25 05:33:16;;;;;;;;;3.67;3.67;;;;;23.36;48.68;98087.91;4938670;28;109412;-57
2022/06/25 05:35:43;;;;;;;;;3.00;3.00;;;;;23.37;48.60;98085.97;4943193;28;102189;-57
2022/06/25 05:38:10;;;;;;;;;1.67;1.67;;;;;23.37;48.72;98085.97;4936716;28;103283;-57
2022/06/25 05:40:37;;;;;;;;;4.33;3.00;;;;;23.36;48.56;98087.91;4942078;28;102380;-57
2022/06/25 05:43:04;;;;;;;;;1.67;1.67;;;;;23.37;48.51;98085.97;4934311;28;104023;-57
2022/06/25 05:45:31;;;;;;;;;1.67;1.67;;;;;23.37;48.64;98086.75;4930846;28;102386;-58
2022/06/25 05:47:58;;;;;;;;;2.00;2.00;;;;;23.38;48.67;98073.78;4946267;28;102569;-57
2022/06/25 05:50:26;;;;;;;;;2.67;2.67;;;;;23.37;48.57;98081.25;4940577;28;102548;-57
2022/06/25 05:52:54;;;;;;;;;1.67;1.67;;;;;23.38;48.58;98093.13;4941874;28;104054;-57
2022/06/25 05:55:22;;;;;;;;;2.00;2.00;;;;;23.39;48.66;98089.25;4939263;28;105521;-57
2022/06/25 05:57:50;;;;;;;;;2.00;2.00;;;;;23.39;48.75;98103.03;4933039;28;102367;-57
2022/06/25 06:00:18;;;;;;;;;2.00;2.00;;;;;23.39;48.74;98100.28;4935137;28;102248;-57
2022/06/25 06:02:45;;;;;;;;;2.00;2.00;;;;;23.39;48.79;98094.75;4939807;28;104085;-57
2022/06/25 06:05:12;;;;;;;;;2.67;2.00;;;;;23.39;48.69;98097.53;4946617;28;102146;-57
2022/06/25 06:07:39;;;;;;;;;2.67;2.67;;;;;23.39;48.82;98112.13;4947937;28;102247;-57
2022/06/25 06:10:07;;;;;;;;;2.00;2.00;;;;;23.39;48.63;98094.75;4947880;28;102522;-57
2022/06/25 06:12:34;;;;;;;;;2.67;2.67;;;;;23.40;48.74;98107.44;4933670;28;104571;-57
2022/06/25 06:15:01;;;;;;;;;3.00;3.00;;;;;23.38;48.78;98104.97;4938349;28;102154;-57
2022/06/25 06:17:28;;;;;;;;;2.00;2.00;;;;;23.39;48.56;98094.75;4941074;28;102180;-57
2022/06/25 06:19:56;;;;;;;;;2.33;2.00;;;;;23.40;48.55;98090.88;4943202;28;102163;-57
2022/06/25 06:22:23;;;;;;;;;1.00;1.00;;;;;23.39;48.77;98100.28;4945742;28;104029;-57
2022/06/25 06:24:50;;;;;;;;;2.00;2.00;;;;;23.40;48.60;98093.66;4943309;28;102328;-57
2022/06/25 06:27:17;;;;;;;;;2.00;2.00;;;;;23.41;48.56;98106.34;4937779;28;102246;-57
2022/06/25 06:29:44;;;;;;;;;2.33;2.33;;;;;23.41;48.55;98098.06;4936754;28;102961;-57
2022/06/25 06:32:11;;;;;;;;;3.00;2.00;;;;;23.42;48.69;98107.97;4942428;28;104058;-57
2022/06/25 06:34:38;;;;;;;;;2.00;2.00;;;;;23.42;48.62;98110.72;4940107;28;102094;-57
2022/06/25 06:37:05;;;;;;;;;2.00;2.00;;;;;23.43;48.77;98112.38;4935441;28;103034;-57
2022/06/25 06:39:33;;;;;;;;;1.67;1.67;;;;;23.42;48.72;98116.22;4938718;28;103368;-58
2022/06/25 06:42:00;;;;;;;;;1.67;1.67;;;;;23.43;48.65;98118.72;4933796;28;103848;-57
2022/06/25 06:44:27;;;;;;;;;1.33;1.33;;;;;23.42;48.68;98119.81;4940326;28;102360;-57
2022/06/25 06:46:54;;;;;;;;;2.33;2.33;;;;;23.42;48.56;98125.34;4939314;28;102259;-57
2022/06/25 06:49:21;;;;;;;;;2.00;2.00;;;;;23.44;48.69;98119.56;4943923;28;102851;-57
2022/06/25 06:51:48;;;;;;;;;2.00;2.00;;;;;23.44;48.56;98119.56;4941090;28;104173;-57
2022/06/25 06:54:15;;;;;;;;;3.00;3.00;;;;;23.44;48.57;98127.84;4943193;28;102219;-57
2022/06/25 06:56:43;;;;;;;;;2.33;2.00;;;;;23.43;48.60;98113.19;4942989;28;102165;-57
2022/06/25 06:59:10;;;;;;;;;2.00;2.00;;;;;23.45;48.65;98118.47;4935297;28;102392;-57
2022/06/25 07:01:37;;;;;;;;;1.67;1.67;;;;;23.44;48.53;98114.03;4940442;28;104399;-57
2022/06/25 07:04:04;;;;;;;;;2.00;2.00;;;;;23.46;48.64;98117.34;4940045;28;102131;-57
2022/06/25 07:06:31;;;;;;;;;3.00;2.00;;;;;23.46;48.61;98122.88;4946115;28;102372;-57
2022/06/25 07:08:58;;;;;;;;;2.00;2.00;;;;;23.46;48.50;98118.13;4937030;28;102527;-57
2022/06/25 07:11:28;;;;;;;;;1.67;1.67;;;;;23.46;48.76;98122.88;4938576;28;104167;-57
2022/06/25 07:13:59;;;;;;;;;1.33;1.33;;;;;23.46;48.72;98117.34;4940661;28;102368;-57
2022/06/25 07:16:27;;;;;;;;;2.00;2.00;;;;;23.46;48.68;98109.84;4939276;28;102398;-57
2022/06/25 07:18:55;;;;;;;;;3.00;2.00;;;;;23.46;48.66;98114.59;4940067;28;102347;-57
2022/06/25 07:21:23;;;;;;;;;2.67;1.67;;;;;23.47;48.58;98113.44;4936587;28;104055;-57
2022/06/25 07:23:50;;;;;;;;;2.00;2.00;;;;;23.47;48.44;98116.19;4945084;28;102259;-57
2022/06/25 07:26:18;;;;;;;;;2.33;2.00;;;;;23.46;48.49;98118.13;4940058;28;111418;-57
2022/06/25 07:28:45;;;;;;;;;2.33;2.33;;;;;23.48;48.62;98115.91;4940643;28;103181;-57
2022/06/25 07:31:12;;;;;;;;;3.00;3.00;;;;;23.49;48.45;98122.25;4937803;28;103610;-57
2022/06/25 07:33:40;;;;;;;;;1.00;1.00;;;;;23.49;48.45;98120.31;4937797;28;102156;-57
2022/06/25 07:36:07;;;;;;;;;2.00;2.00;;;;;23.51;48.45;98131.06;4944510;28;102115;-57
2022/06/25 07:38:34;;;;;;;;;2.00;2.00;;;;;23.51;48.63;98125.53;4942550;28;102398;-57
2022/06/25 07:41:02;;;;;;;;;2.67;2.67;;;;;23.51;48.51;98117.25;4942641;28;104190;-57
2022/06/25 07:43:29;;;;;;;;;3.00;3.00;;;;;23.50;48.46;98123.91;4945503;28;102299;-58
2022/06/25 07:45:56;;;;;;;;;1.00;1.00;;;;;23.50;48.65;98119.22;4936752;28;102407;-57
2022/06/25 07:48:23;;;;;;;;;1.00;1.00;;;;;23.50;48.62;98123.91;4946705;28;103474;-57
2022/06/25 07:53:36;;;;;;;;;2.00;1.67;;;;;23.51;48.43;98120.00;4938832;28;102516;-57
2022/06/25 07:56:03;;;;;;;;;1.67;1.67;;;;;23.52;48.64;98121.66;4940909;28;102241;-57
2022/06/25 07:58:31;;;;;;;;;2.00;2.00;;;;;23.52;48.51;98116.13;4937313;28;102520;-57
2022/06/25 08:00:58;;;;;;;;;2.00;2.00;;;;;23.52;48.42;98118.91;4921343;28;104019;-57
2022/06/25 08:03:25;;;;;;;;;3.33;2.67;;;;;23.53;48.35;98123.31;4941645;28;102093;-57
2022/06/25 08:05:53;;;;;;;;;2.67;2.67;;;;;23.53;48.46;98124.13;4936873;28;102333;-57
2022/06/25 08:08:20;;;;;;;;;1.33;1.00;;;;;23.55;48.36;98126.56;4935111;28;102388;-57
2022/06/25 08:10:47;;;;;;;;;1.33;1.33;;;;;23.55;48.34;98121.06;4940967;28;104170;-57
2022/06/25 08:13:19;;;;;;;;;1.67;1.67;;;;;23.56;48.31;98125.47;4933372;28;102500;-57
2022/06/25 08:15:46;;;;;;;;;2.00;2.00;;;;;23.56;48.32;98129.06;4940909;28;101889;-57
2022/06/25 08:18:14;;;;;;;;;3.33;2.33;;;;;23.58;48.29;98116.91;4938235;28;102225;-57
2022/06/25 08:20:41;;;;;;;;;1.33;1.33;;;;;23.57;48.32;98129.88;4945889;28;104091;-57
2022/06/25 08:23:08;;;;;;;;;2.00;2.00;;;;;23.58;48.46;98125.19;4943813;28;102336;-57
2022/06/25 08:25:35;;;;;;;;;1.00;1.00;;;;;23.59;48.40;98130.41;4941222;28;102341;-58
2022/06/25 08:28:05;;;;;;;;;2.00;2.00;;;;;23.59;48.23;98127.66;4948784;28;105334;-57
2022/06/25 08:30:32;;;;;;;;;2.00;2.00;;;;;23.59;48.40;98124.91;4937796;28;108908;-57
2022/06/25 08:32:59;;;;;;;;;1.00;1.00;;;;;23.60;48.31;98115.47;4950942;28;102202;-57
2022/06/25 08:35:26;;;;;;;;;1.00;1.00;;;;;23.61;48.30;98125.41;4938762;28;102473;-57
2022/06/25 08:37:53;;;;;;;;;2.00;1.00;;;;;23.62;48.22;98120.72;4949056;28;102423;-57
2022/06/25 08:40:20;;;;;;;;;2.00;2.00;;;;;23.64;48.20;98121.25;4948783;28;104151;-57
2022/06/25 08:42:48;;;;;;;;;1.67;1.67;;;;;23.63;48.09;98117.66;4937740;28;102345;-57
2022/06/25 08:45:17;;;;;;;;;1.00;1.00;;;;;23.63;48.25;98116.84;4933856;28;102195;-57
2022/06/25 08:47:48;;;;;;;;;1.00;1.00;;;;;23.64;48.05;98119.28;4944694;28;102174;-57
2022/06/25 08:50:17;;;;;;;;;2.00;2.00;;;;;23.64;48.04;98119.28;4942024;28;104147;-57
2022/06/25 08:52:49;;;;;;;;;1.33;1.33;;;;;23.65;48.19;98114.56;4941380;28;102218;-57
2022/06/25 08:55:25;;;;;;;;;2.00;2.00;;;;;23.66;48.08;98121.75;4942623;28;102574;-57
2022/06/25 08:57:52;;;;;;;;;1.67;1.67;;;;;23.66;48.09;98119.81;4939788;28;102429;-57
2022/06/25 09:00:19;;;;;;;;;2.00;2.00;;;;;23.66;48.07;98119.00;4941244;28;104056;-58
2022/06/25 09:02:50;;;;;;;;;1.00;1.00;;;;;23.67;48.29;98126.16;4944544;28;102957;-57
2022/06/25 09:05:32;;;;;;;;;1.00;1.00;;;;;23.67;48.30;98121.47;4942943;28;102067;-57
2022/06/25 09:08:05;;;;;;;;;2.00;1.00;;;;;23.68;48.16;98116.75;4939313;28;102307;-57
2022/06/25 09:10:32;;;;;;;;;1.67;1.67;;;;;23.69;47.99;98123.91;4935213;28;109864;-57
2022/06/25 09:13:00;;;;;;;;;2.00;2.00;;;;;23.70;48.15;98118.09;4941728;28;102202;-57
2022/06/25 09:15:37;;;;;;;;;2.00;2.00;;;;;23.70;47.88;98118.09;4944695;28;102251;-57
2022/06/25 09:18:08;;;;;;;;;1.67;1.67;;;;;23.70;48.17;98118.09;4940306;28;102291;-58
2022/06/25 09:20:37;;;;;;;;;2.00;2.00;;;;;23.72;48.13;98121.41;4921889;28;109680;-60
2022/06/25 09:23:06;;;;;;;;;1.00;1.00;;;;;23.72;47.98;98118.63;4934417;28;102310;-57
2022/06/25 09:25:34;;;;;;;;;2.00;2.00;;;;;23.72;47.91;98118.63;4949412;28;102624;-57
2022/06/25 09:28:01;;;;;;;;;1.00;1.00;;;;;23.73;47.95;98116.69;4944968;28;102985;-57
2022/06/25 09:30:29;;;;;;;;;2.00;2.00;;;;;23.74;48.17;98118.31;4931708;28;104165;-57
2022/06/25 09:32:59;;;;;;;;;1.33;1.33;;;;;23.73;48.12;98120.25;4940334;28;102516;-57
2022/06/25 09:35:33;;;;;;;;;1.00;1.00;;;;;23.73;48.18;98123.00;4941177;28;102369;-58
2022/06/25 09:38:07;;;;;;;;;2.00;2.00;;;;;23.74;48.22;98121.91;4941797;28;102554;-57
2022/06/25 09:40:35;;;;;;;;;1.67;1.67;;;;;23.74;48.06;98119.13;4942452;28;108917;-57
2022/06/25 09:43:13;;;;;;;;;2.33;2.00;;;;;23.74;48.24;98119.13;4942028;28;102168;-57
2022/06/25 09:45:45;;;;;;;;;4.00;2.00;;;;;23.76;47.95;98125.19;4942176;28;102077;-57
2022/06/25 09:48:28;;;;;;;;;1.33;1.33;;;;;23.78;48.14;98116.59;4942081;28;102343;-57
2022/06/25 09:51:22;;;;;;;;;1.00;1.00;;;;;23.78;48.17;98124.88;4942581;28;104168;-57
2022/06/25 09:53:54;;;;;;;;;2.00;2.00;;;;;23.78;48.16;98114.66;4932946;28;102274;-57
2022/06/25 09:56:30;;;;;;;;;3.00;3.00;;;;;23.77;48.09;98113.03;4959389;28;110593;-57
2022/06/25 09:58:58;;;;;;;;;0.00;0.00;;;;;23.80;47.92;98112.44;4941127;28;102216;-57
2022/06/25 10:01:27;;;;;;;;;2.00;2.00;;;;;23.79;48.07;98116.31;4945766;28;104043;-57
2022/06/25 10:03:55;;;;;;;;;2.00;2.00;;;;;23.81;47.95;98116.03;4935238;28;102015;-57
2022/06/25 10:06:23;;;;;;;;;1.67;1.67;;;;;23.79;47.94;98110.78;4968845;28;102189;-57
2022/06/25 10:08:57;;;;;;;;;2.00;2.00;;;;;23.80;48.07;98109.69;4942810;28;102305;-57
2022/06/25 10:11:28;;;;;;;;;1.67;1.33;;;;;23.81;47.91;98100.28;4933107;28;104069;-57
2022/06/25 10:13:55;;;;;;;;;2.00;2.00;;;;;23.82;48.08;98099.13;4942356;28;102288;-57
2022/06/25 10:16:23;;;;;;;;;1.00;1.00;;;;;23.83;47.91;98100.78;4943360;28;102666;-57
2022/06/25 10:18:51;;;;;;;;;0.67;0.67;;;;;23.83;47.69;98098.03;4947858;28;102207;-57
2022/06/25 10:21:19;;;;;;;;;1.00;1.00;;;;;23.84;48.05;98096.91;4946761;28;104094;-57
2022/06/25 10:23:51;;;;;;;;;2.00;2.00;;;;;23.84;47.93;98099.66;4939709;28;103584;-57
2022/06/25 10:26:19;;;;;;;;;1.00;1.00;;;;;23.87;48.03;98101.00;4944682;28;102025;-57
2022/06/25 10:28:47;;;;;;;;;2.00;2.00;;;;;23.87;47.82;98101.00;4943504;28;105406;-57
2022/06/25 10:31:16;;;;;;;;;1.00;1.00;;;;;23.86;48.03;98102.97;4939545;28;104009;-57
2022/06/25 10:34:02;;;;;;;;;2.00;2.00;;;;;23.88;47.87;98102.66;4941266;28;102015;-57
2022/06/25 10:36:46;;;;;;;;;1.67;0.67;;;;;23.89;47.77;98105.13;4945169;28;102344;-57
2022/06/25 10:39:25;;;;;;;;;2.00;2.00;;;;;23.89;47.74;98104.28;4938782;28;102351;-57
2022/06/25 10:45:11;;;;;;;;;1.67;1.67;;;;;23.92;47.76;98099.00;4941675;28;102563;-57
2022/06/25 10:47:53;;;;;;;;;2.00;1.67;;;;;23.92;47.75;98096.22;4933513;28;102278;-57
2022/06/25 10:50:20;;;;;;;;;1.67;1.00;;;;;23.93;47.89;98094.28;4941958;28;102691;-57
2022/06/25 10:55:30;;;;;;;;;1.67;1.67;;;;;23.96;47.96;98094.50;4926283;28;103199;-57
2022/06/25 10:58:22;;;;;;;;;0.67;0.67;;;;;23.97;47.74;98090.63;4935262;28;102135;-57
2022/06/25 11:01:01;;;;;;;;;1.00;1.00;;;;;23.99;47.62;98087.56;4933802;28;102594;-57
2022/06/25 11:03:28;;;;;;;;;1.00;1.00;;;;;23.99;47.94;98093.91;4937470;28;104029;-57
2022/06/25 11:05:56;;;;;;;;;2.00;1.00;;;;;23.99;47.73;98099.44;4942939;28;102325;-57
2022/06/25 11:08:36;;;;;;;;;1.00;1.00;;;;;23.99;47.84;98093.91;4931612;28;102428;-57
2022/06/25 11:11:06;;;;;;;;;2.00;1.00;;;;;24.00;47.75;98084.50;4940112;28;102584;-57
2022/06/25 11:13:33;;;;;;;;;1.00;1.00;;;;;23.99;47.78;98085.63;4942616;28;108942;-57
2022/06/25 11:16:00;;;;;;;;;2.00;2.00;;;;;24.00;47.73;98101.06;4941611;28;102200;-57
2022/06/25 11:18:27;;;;;;;;;1.33;1.33;;;;;24.00;47.94;98089.22;4954641;28;102454;-57
2022/06/25 11:20:54;;;;;;;;;0.00;0.00;;;;;24.00;47.64;98092.78;4946810;28;103174;-57
2022/06/25 11:23:21;;;;;;;;;1.67;1.67;;;;;24.02;47.83;98089.72;4942988;28;104217;-57
2022/06/25 11:28:48;;;;;;;;;1.00;1.00;;;;;24.03;47.80;98094.13;4958297;28;102288;-57
2022/06/25 11:31:16;;;;;;;;;1.00;1.00;;;;;24.02;47.83;98096.06;4944000;28;102084;-57
2022/06/25 11:33:43;;;;;;;;;1.00;1.00;;;;;24.04;47.74;98097.72;4945630;28;104177;-57
2022/06/25 11:36:10;;;;;;;;;2.33;1.67;;;;;24.03;47.91;98091.38;4941369;28;102148;-57
2022/06/25 11:38:39;;;;;;;;;2.00;2.00;;;;;24.02;47.82;98096.06;4937536;28;102269;-58
2022/06/25 11:41:06;;;;;;;;;2.00;2.00;;;;;24.03;47.84;98085.84;4946954;28;102382;-57
2022/06/25 11:43:36;;;;;;;;;1.00;1.00;;;;;24.04;47.70;98092.19;4935319;28;108902;-57
2022/06/25 11:46:03;;;;;;;;;1.67;1.67;;;;;24.04;47.77;98084.72;4942123;28;102994;-57
2022/06/25 11:48:31;;;;;;;;;2.33;2.33;;;;;24.04;47.72;98089.44;4922515;28;102345;-57